Time;durP1;ratioP1;P1;durP2;ratioP2;P2;SDS_P1;SDS_P2;PMS_P1;PMS_P2;Temp;Humidity;BMP_temperature;BMP_pressure;BME280_temperature;BME280_humidity;BME280_pressure;Samples;Min_cycle;Max_cycle;Signal;HPM_P1;HPM_P2
2023/03/29 00:00:11;;;;;;;12.32;6.50;;;4.10;99.90;;;;;;5026703;28;20437;-69
2023/03/29 00:02:47;;;;;;;14.05;6.80;;;4.10;99.90;;;;;;4335105;28;10000111;-68
2023/03/29 00:05:26;;;;;;;13.18;6.22;;;4.10;99.90;;;;;;5022629;28;20036;-69
2023/03/29 00:08:04;;;;;;;12.40;6.50;;;4.10;99.90;;;;;;5020597;28;20037;-69
2023/03/29 00:10:42;;;;;;;10.98;6.15;;;4.10;99.90;;;;;;5028609;28;20041;-69
2023/03/29 00:13:10;;;;;;;10.35;6.38;;;4.10;99.90;;;;;;5026253;28;20120;-69
2023/03/29 00:15:36;;;;;;;14.25;6.97;;;4.10;99.90;;;;;;5025117;28;20473;-69
2023/03/29 00:18:03;;;;;;;13.07;6.50;;;4.10;99.90;;;;;;5027539;28;20029;-69
2023/03/29 00:20:29;;;;;;;12.48;6.63;;;4.10;99.90;;;;;;5030517;28;20517;-70
2023/03/29 00:22:55;;;;;;;11.15;6.47;;;4.10;99.90;;;;;;5032407;28;20049;-69
2023/03/29 00:25:33;;;;;;;13.57;6.85;;;4.10;99.90;;;;;;5024895;28;20068;-69
2023/03/29 00:28:08;;;;;;;10.13;7.20;;;4.00;99.90;;;;;;5018202;28;20034;-70
2023/03/29 00:30:43;;;;;;;13.15;7.68;;;4.00;99.90;;;;;;5027844;28;20052;-69
2023/03/29 00:33:17;;;;;;;11.85;7.68;;;4.00;99.90;;;;;;5030265;28;20050;-69
2023/03/29 00:35:52;;;;;;;11.75;7.38;;;4.00;99.90;;;;;;5028104;28;20038;-69
2023/03/29 00:38:22;;;;;;;13.90;7.82;;;4.00;99.90;;;;;;5028302;28;20048;-69
2023/03/29 00:40:57;;;;;;;13.02;8.23;;;4.00;99.90;;;;;;5025733;28;20026;-70
2023/03/29 00:43:23;;;;;;;11.43;7.70;;;4.00;99.90;;;;;;5015853;28;20391;-70
2023/03/29 00:45:58;;;;;;;15.52;8.80;;;4.10;99.90;;;;;;5023820;28;20037;-70
2023/03/29 00:48:28;;;;;;;15.48;8.32;;;4.10;99.90;;;;;;5026877;28;20034;-70
2023/03/29 00:51:08;;;;;;;16.55;8.57;;;4.10;99.90;;;;;;5027247;28;20032;-69
2023/03/29 00:53:47;;;;;;;16.10;8.85;;;4.10;99.90;;;;;;5027944;28;20183;-70
2023/03/29 00:56:33;;;;;;;12.98;8.27;;;4.10;99.90;;;;;;5025146;28;20037;-70
2023/03/29 00:59:21;;;;;;;13.70;8.10;;;4.10;99.90;;;;;;5023621;28;20104;-70
2023/03/29 01:01:58;;;;;;;12.05;7.78;;;4.20;99.90;;;;;;5022128;28;20474;-70
2023/03/29 01:04:52;;;;;;;12.57;8.32;;;4.20;99.90;;;;;;5021706;28;20429;-70
2023/03/29 01:07:32;;;;;;;15.05;8.50;;;4.20;99.90;;;;;;5030112;28;20101;-70
2023/03/29 01:10:08;;;;;;;13.95;9.40;;;4.20;99.90;;;;;;5026136;28;20112;-70
2023/03/29 01:12:48;;;;;;;16.20;9.38;;;4.20;99.90;;;;;;5026944;28;20116;-70
2023/03/29 01:15:30;;;;;;;13.45;8.70;;;4.10;99.90;;;;;;5019714;28;20026;-69
2023/03/29 01:18:05;;;;;;;16.50;9.55;;;4.10;99.90;;;;;;5023159;28;20029;-69
2023/03/29 01:20:57;;;;;;;18.02;8.85;;;4.00;99.90;;;;;;5022787;28;20494;-69
2023/03/29 01:23:51;;;;;;;13.50;9.25;;;4.10;99.90;;;;;;5029771;28;20034;-70
2023/03/29 01:26:25;;;;;;;;;;;4.00;99.90;;;;;;5027267;28;20038;-70
2023/03/29 01:29:20;;;;;;;20.70;10.20;;;4.00;99.90;;;;;;5015391;28;19913;-70
2023/03/29 01:32:01;;;;;;;16.95;9.32;;;4.00;99.90;;;;;;5024153;28;20033;-70
2023/03/29 01:34:57;;;;;;;20.02;10.15;;;4.00;99.90;;;;;;5025547;28;20508;-69
2023/03/29 01:37:33;;;;;;;15.73;8.90;;;4.00;99.90;;;;;;5025027;28;20521;-70
2023/03/29 01:40:06;;;;;;;14.95;9.70;;;4.00;99.90;;;;;;5022036;28;20022;-69
2023/03/29 01:42:55;;;;;;;17.45;10.30;;;4.00;99.90;;;;;;5028886;28;20038;-69
2023/03/29 01:45:41;;;;;;;17.90;10.15;;;4.00;99.90;;;;;;5019005;28;20034;-70
2023/03/29 01:48:45;;;;;;;18.80;9.77;;;3.90;99.90;;;;;;5011390;28;20057;-69
2023/03/29 01:51:25;;;;;;;18.27;10.30;;;3.90;99.90;;;;;;4985953;28;20397;-69
2023/03/29 01:54:04;;;;;;;17.05;10.30;;;3.90;99.90;;;;;;5018282;28;20022;-69
2023/03/29 01:56:35;;;;;;;15.05;9.80;;;3.90;99.90;;;;;;5020527;28;20037;-69
2023/03/29 01:59:06;;;;;;;17.10;9.75;;;4.00;99.90;;;;;;5018347;28;20038;-70
2023/03/29 02:01:42;;;;;;;16.70;9.30;;;4.00;99.90;;;;;;5022742;28;20261;-69
2023/03/29 02:04:18;;;;;;;15.18;9.80;;;4.00;99.90;;;;;;5027727;28;20021;-69
2023/03/29 02:06:53;;;;;;;14.52;9.15;;;4.00;99.90;;;;;;5030141;28;20029;-70
2023/03/29 02:09:20;;;;;;;14.60;9.15;;;4.00;99.90;;;;;;5030270;28;20033;-70
2023/03/29 02:11:58;;;;;;;19.10;8.95;;;4.10;99.90;;;;;;5019878;28;20040;-69
2023/03/29 02:14:31;;;;;;;16.13;9.05;;;4.10;99.90;;;;;;5012485;28;20034;-69
2023/03/29 02:17:22;;;;;;;12.70;8.52;;;4.10;99.90;;;;;;5012070;28;20030;-69
2023/03/29 02:20:13;;;;;;;12.32;8.52;;;4.10;99.90;;;;;;5024441;28;20026;-70
2023/03/29 02:23:08;;;;;;;14.70;9.20;;;4.10;99.90;;;;;;5026334;28;20441;-70
2023/03/29 02:25:42;;;;;;;12.52;8.48;;;4.10;99.90;;;;;;5029556;28;20124;-70
2023/03/29 02:28:20;;;;;;;13.45;8.93;;;4.10;99.90;;;;;;5021858;28;20038;-69
2023/03/29 02:31:03;;;;;;;15.32;8.40;;;4.10;99.90;;;;;;5010303;28;20038;-69
2023/03/29 02:33:49;;;;;;;13.75;8.18;;;4.10;99.90;;;;;;5014178;28;20037;-69
2023/03/29 02:36:33;;;;;;;12.93;8.15;;;4.10;99.90;;;;;;5029432;28;20033;-69
2023/03/29 02:39:04;;;;;;;14.57;8.32;;;4.00;99.90;;;;;;5029580;28;20105;-69
2023/03/29 02:41:35;;;;;;;15.43;8.32;;;4.10;99.90;;;;;;5027243;28;20498;-69
2023/03/29 02:44:09;;;;;;;11.63;8.05;;;4.10;99.90;;;;;;5026457;28;20506;-70
2023/03/29 02:46:41;;;;;;;12.35;8.77;;;4.10;99.90;;;;;;5016082;28;20057;-70
2023/03/29 02:49:10;;;;;;;9.25;5.82;;;4.10;99.90;;;;;;5025860;28;20082;-69
2023/03/29 02:51:46;;;;;;;12.07;8.07;;;4.10;99.90;;;;;;5027798;28;20036;-69
2023/03/29 02:54:18;;;;;;;13.95;8.45;;;4.10;99.90;;;;;;5027850;28;20517;-69
2023/03/29 02:56:55;;;;;;;8.85;6.13;;;4.10;99.90;;;;;;5015973;28;20549;-70
2023/03/29 02:59:23;;;;;;;13.65;8.25;;;4.00;99.90;;;;;;5025159;28;20127;-69
2023/03/29 03:01:55;;;;;;;13.88;7.68;;;4.00;99.90;;;;;;5023250;28;20112;-69
2023/03/29 03:04:21;;;;;;;17.65;8.55;;;4.00;99.90;;;;;;5022569;28;20028;-69
2023/03/29 03:06:49;;;;;;;13.38;8.38;;;4.00;99.90;;;;;;5017765;28;20398;-69
2023/03/29 03:09:16;;;;;;;13.32;8.80;;;4.00;99.90;;;;;;5025895;28;20037;-69
2023/03/29 03:11:50;;;;;;;12.75;8.27;;;4.00;99.90;;;;;;5028983;28;20041;-69
2023/03/29 03:14:17;;;;;;;12.35;8.13;;;4.00;99.90;;;;;;5026643;28;20509;-69
2023/03/29 03:16:43;;;;;;;12.38;7.82;;;3.90;99.90;;;;;;5029005;28;20025;-69
2023/03/29 03:19:12;;;;;;;13.35;7.57;;;3.90;99.90;;;;;;5019395;28;20034;-69
2023/03/29 03:21:48;;;;;;;12.05;7.80;;;3.90;99.90;;;;;;5015728;28;20032;-69
2023/03/29 03:24:21;;;;;;;11.77;7.70;;;3.90;99.90;;;;;;5013719;28;20104;-70
2023/03/29 03:26:57;;;;;;;15.30;8.18;;;4.00;99.90;;;;;;5025103;28;20037;-69
2023/03/29 03:29:25;;;;;;;11.15;7.47;;;4.00;99.90;;;;;;5025970;28;20026;-69
2023/03/29 03:31:55;;;;;;;14.20;7.45;;;4.00;99.90;;;;;;5019692;28;20037;-70
2023/03/29 03:34:25;;;;;;;12.15;7.22;;;4.10;99.90;;;;;;5018970;28;20041;-69
2023/03/29 03:37:00;;;;;;;12.93;7.95;;;4.00;99.90;;;;;;5023718;28;20033;-69
2023/03/29 03:39:27;;;;;;;13.00;8.27;;;4.00;99.90;;;;;;5027270;28;20117;-70
2023/03/29 03:42:00;;;;;;;14.50;8.18;;;4.00;99.90;;;;;;5027228;28;20049;-69
2023/03/29 03:44:28;;;;;;;14.32;8.50;;;4.00;99.90;;;;;;5008405;28;20029;-69
2023/03/29 03:47:01;;;;;;;14.15;8.50;;;4.00;99.90;;;;;;5005812;28;20018;-69
2023/03/29 03:49:29;;;;;;;;;;;4.00;99.90;;;;;;5018589;28;20025;-69
2023/03/29 03:52:06;;;;;;;17.70;8.00;;;4.00;99.90;;;;;;5029351;28;19909;-69
2023/03/29 03:54:35;;;;;;;13.20;8.80;;;3.90;99.90;;;;;;5020712;28;20037;-69
2023/03/29 03:57:01;;;;;;;15.50;8.43;;;3.90;99.90;;;;;;5012400;28;20551;-69
2023/03/29 03:59:28;;;;;;;13.35;8.55;;;3.90;99.90;;;;;;5026777;28;20026;-70
2023/03/29 04:01:54;;;;;;;14.40;8.90;;;3.90;99.90;;;;;;5018084;28;20022;-69
2023/03/29 04:04:29;;;;;;;11.52;8.57;;;3.90;99.90;;;;;;5019418;28;20026;-69
2023/03/29 04:07:01;;;;;;;13.20;8.43;;;3.80;99.90;;;;;;5023579;28;20029;-69
2023/03/29 04:09:32;;;;;;;15.77;9.10;;;3.80;99.90;;;;;;5026731;28;20072;-69
2023/03/29 04:12:04;;;;;;;13.63;8.95;;;3.80;99.90;;;;;;5031104;28;20437;-69
2023/03/29 04:14:36;;;;;;;15.07;9.07;;;3.80;99.90;;;;;;4329353;28;10000701;-69
2023/03/29 04:17:10;;;;;;;16.38;9.32;;;3.80;99.90;;;;;;5031144;28;20040;-69
2023/03/29 04:19:43;;;;;;;11.80;8.93;;;3.80;99.90;;;;;;5026658;28;20386;-69
2023/03/29 04:22:15;;;;;;;13.10;8.77;;;3.90;99.90;;;;;;5031653;28;20673;-69
2023/03/29 04:24:45;;;;;;;14.25;8.68;;;3.80;99.90;;;;;;5029452;28;20064;-69
2023/03/29 04:27:25;;;;;;;14.02;7.90;;;3.80;99.90;;;;;;5022456;28;20026;-69
2023/03/29 04:29:57;;;;;;;13.48;9.52;;;3.80;99.90;;;;;;5019725;28;20053;-69
2023/03/29 04:32:25;;;;;;;11.37;7.17;;;3.80;99.90;;;;;;5025458;28;20045;-69
2023/03/29 04:34:51;;;;;;;14.40;8.70;;;3.80;99.90;;;;;;5030582;28;20025;-69
2023/03/29 04:37:20;;;;;;;15.52;10.00;;;3.80;99.90;;;;;;5027507;28;20048;-69
2023/03/29 04:39:48;;;;;;;18.50;10.00;;;3.80;99.90;;;;;;5012158;28;20033;-70
2023/03/29 04:42:21;;;;;;;17.20;8.90;;;3.80;99.90;;;;;;5024924;28;20498;-70
2023/03/29 04:44:52;;;;;;;12.77;9.13;;;3.80;99.90;;;;;;5018965;28;20026;-69
2023/03/29 04:47:30;;;;;;;15.32;9.90;;;3.80;99.90;;;;;;5012121;28;20041;-69
2023/03/29 04:49:57;;;;;;;15.63;9.18;;;3.80;99.90;;;;;;5011527;28;20026;-69
2023/03/29 04:52:31;;;;;;;15.93;9.85;;;3.80;99.90;;;;;;5029383;28;20040;-69
2023/03/29 04:55:00;;;;;;;13.85;9.43;;;3.80;99.90;;;;;;5031467;28;20036;-69
2023/03/29 04:57:30;;;;;;;14.70;9.38;;;3.80;99.90;;;;;;5028750;28;20029;-69
2023/03/29 04:59:58;;;;;;;14.20;9.10;;;3.80;99.90;;;;;;5028730;28;20025;-70
2023/03/29 05:02:29;;;;;;;13.80;9.63;;;3.80;99.90;;;;;;5020668;28;20033;-69
2023/03/29 05:04:56;;;;;;;16.95;10.60;;;3.80;99.90;;;;;;5022241;28;20041;-69
2023/03/29 05:07:25;;;;;;;17.33;10.88;;;3.80;99.90;;;;;;5026428;28;20505;-70
2023/03/29 05:09:52;;;;;;;14.70;11.35;;;3.90;99.90;;;;;;5017661;28;20026;-69
2023/03/29 05:12:19;;;;;;;18.27;11.93;;;3.90;99.90;;;;;;5018736;28;20038;-70
2023/03/29 05:14:45;;;;;;;22.27;13.32;;;3.90;99.90;;;;;;5019663;28;20021;-69
2023/03/29 05:17:13;;;;;;;18.15;10.85;;;3.90;99.90;;;;;;5022482;28;20025;-70
2023/03/29 05:19:40;;;;;;;13.95;9.23;;;4.00;99.90;;;;;;5018047;28;20100;-70
2023/03/29 05:22:10;;;;;;;13.60;8.80;;;4.00;99.90;;;;;;5013220;28;20041;-69
2023/03/29 05:24:39;;;;;;;17.27;9.07;;;4.00;99.90;;;;;;5015105;28;20041;-70
2023/03/29 05:27:10;;;;;;;14.23;8.95;;;4.00;99.90;;;;;;5015043;28;20041;-70
2023/03/29 05:29:38;;;;;;;14.30;8.68;;;4.00;99.90;;;;;;5013304;28;20136;-70
2023/03/29 05:32:06;;;;;;;11.73;8.55;;;4.00;99.90;;;;;;5016832;28;20034;-70
2023/03/29 05:34:39;;;;;;;12.73;8.38;;;4.00;99.90;;;;;;5019865;28;20030;-70
2023/03/29 05:37:07;;;;;;;11.52;8.02;;;4.00;99.90;;;;;;5027722;28;20037;-70
2023/03/29 05:39:36;;;;;;;11.68;8.07;;;4.00;99.90;;;;;;5015695;28;20603;-70
2023/03/29 05:42:04;;;;;;;11.65;8.48;;;4.10;99.90;;;;;;5021106;28;20105;-70
2023/03/29 05:44:31;;;;;;;12.82;7.95;;;4.10;99.90;;;;;;5028732;28;20040;-70
2023/03/29 05:46:57;;;;;;;10.60;7.60;;;4.10;99.90;;;;;;5027830;28;20540;-70
2023/03/29 05:49:23;;;;;;;11.63;7.15;;;4.10;99.90;;;;;;5020396;28;20036;-70
2023/03/29 05:51:50;;;;;;;13.60;7.95;;;4.10;99.90;;;;;;5030266;28;20025;-70
2023/03/29 05:54:16;;;;;;;15.27;7.82;;;4.10;99.90;;;;;;5026613;28;20030;-70
2023/03/29 05:56:42;;;;;;;13.00;8.77;;;4.20;99.90;;;;;;5029505;28;20120;-70
2023/03/29 05:59:08;;;;;;;13.20;8.52;;;4.30;99.90;;;;;;5018957;28;20026;-70
2023/03/29 06:01:35;;;;;;;11.90;7.88;;;4.40;99.90;;;;;;5025901;28;20053;-70
2023/03/29 06:04:05;;;;;;;10.45;7.82;;;4.40;99.90;;;;;;5029959;28;20057;-70
2023/03/29 06:06:30;;;;;;;12.20;8.45;;;4.40;99.90;;;;;;5022132;28;20029;-70
2023/03/29 06:08:56;;;;;;;12.63;8.23;;;4.50;99.90;;;;;;5022842;28;20044;-70
2023/03/29 06:11:27;;;;;;;10.75;7.82;;;4.50;99.90;;;;;;5028850;28;20036;-70
2023/03/29 06:13:54;;;;;;;13.27;8.25;;;4.50;99.90;;;;;;5022288;28;20060;-70
2023/03/29 06:16:22;;;;;;;16.17;8.77;;;4.50;99.90;;;;;;5020329;28;20488;-70
2023/03/29 06:18:53;;;;;;;13.15;8.43;;;4.50;99.90;;;;;;5024384;28;20026;-69
2023/03/29 06:21:23;;;;;;;10.63;8.25;;;4.50;99.90;;;;;;5019880;28;20456;-70
2023/03/29 06:23:51;;;;;;;11.30;8.50;;;4.60;99.90;;;;;;5027396;28;20033;-70
2023/03/29 06:26:18;;;;;;;12.05;7.97;;;4.70;99.90;;;;;;5027179;28;20484;-70
2023/03/29 06:28:47;;;;;;;14.25;8.85;;;4.70;99.90;;;;;;5024962;28;20029;-70
2023/03/29 06:31:18;;;;;;;12.48;8.35;;;4.70;99.90;;;;;;5022164;28;20041;-70
2023/03/29 06:33:47;;;;;;;13.02;8.00;;;4.80;99.90;;;;;;5021459;28;20065;-70
2023/03/29 06:36:19;;;;;;;13.65;8.25;;;4.80;99.90;;;;;;5024800;28;20041;-70
2023/03/29 06:38:47;;;;;;;13.60;8.52;;;4.90;99.90;;;;;;5019281;28;20107;-70
2023/03/29 06:41:20;;;;;;;11.02;8.30;;;4.90;99.90;;;;;;5016491;28;20188;-70
2023/03/29 06:43:49;;;;;;;13.40;8.77;;;5.00;99.90;;;;;;5019468;28;20083;-70
2023/03/29 06:46:19;;;;;;;11.55;7.75;;;5.00;99.90;;;;;;5015915;28;20033;-69
2023/03/29 06:48:47;;;;;;;10.70;7.75;;;5.00;99.90;;;;;;5021011;28;20029;-71
2023/03/29 06:51:18;;;;;;;13.15;7.75;;;5.10;99.90;;;;;;5028580;28;20033;-71
2023/03/29 06:53:45;;;;;;;14.05;8.23;;;5.20;99.90;;;;;;5011379;28;20100;-71
2023/03/29 06:56:10;;;;;;;14.27;8.65;;;5.20;99.90;;;;;;5024295;28;20034;-72
2023/03/29 06:58:40;;;;;;;14.65;8.68;;;5.20;99.90;;;;;;5026888;28;20033;-71
2023/03/29 07:01:10;;;;;;;11.55;8.85;;;5.30;99.90;;;;;;5021308;28;20109;-71
2023/03/29 07:03:38;;;;;;;19.40;12.60;;;5.30;99.90;;;;;;5028937;28;20436;-71
2023/03/29 07:06:11;;;;;;;17.15;10.82;;;5.40;99.90;;;;;;5024430;28;20525;-71
2023/03/29 07:08:42;;;;;;;16.20;11.38;;;5.40;99.90;;;;;;5020066;28;20037;-72
2023/03/29 07:11:13;;;;;;;16.33;11.40;;;5.50;99.90;;;;;;5024737;28;20038;-72
2023/03/29 07:13:41;;;;;;;16.67;10.02;;;5.50;99.90;;;;;;5022677;28;20030;-71
2023/03/29 07:16:11;;;;;;;19.50;11.77;;;5.60;99.90;;;;;;5025064;28;20107;-72
2023/03/29 07:18:40;;;;;;;17.55;11.93;;;5.60;99.90;;;;;;5027196;28;20087;-72
2023/03/29 07:21:11;;;;;;;15.45;10.48;;;5.70;99.90;;;;;;5027907;28;20022;-71
2023/03/29 07:23:41;;;;;;;18.00;11.35;;;5.80;99.90;;;;;;5028235;28;20420;-72
2023/03/29 07:26:10;;;;;;;16.27;9.93;;;5.80;99.90;;;;;;5019543;28;20025;-72
2023/03/29 07:28:41;;;;;;;10.13;6.72;;;5.90;99.90;;;;;;5026658;28;20042;-72
2023/03/29 07:31:10;;;;;;;11.60;7.95;;;5.90;99.90;;;;;;5027835;28;20032;-72
2023/03/29 07:33:37;;;;;;;10.50;7.47;;;6.00;99.90;;;;;;5020764;28;20037;-72
2023/03/29 07:36:04;;;;;;;11.77;8.52;;;6.00;99.90;;;;;;5025075;28;20413;-71
2023/03/29 07:38:31;;;;;;;10.70;6.80;;;6.00;99.90;;;;;;5028659;28;20029;-71
2023/03/29 07:40:59;;;;;;;10.05;7.03;;;6.10;99.90;;;;;;5029478;28;20037;-72
2023/03/29 07:43:30;;;;;;;14.05;6.97;;;6.10;99.90;;;;;;5014352;28;20387;-71
2023/03/29 07:46:01;;;;;;;9.15;6.65;;;6.20;99.90;;;;;;5032262;28;20075;-71
2023/03/29 07:48:32;;;;;;;13.30;6.68;;;6.30;99.90;;;;;;5023870;28;20040;-71
2023/03/29 07:50:59;;;;;;;11.65;7.10;;;6.30;99.90;;;;;;5031289;28;20482;-71
2023/03/29 07:53:33;;;;;;;9.30;6.85;;;6.40;99.90;;;;;;5026892;28;20484;-71
2023/03/29 07:56:04;;;;;;;12.07;7.47;;;6.40;99.90;;;;;;5024736;28;20033;-72
2023/03/29 07:58:39;;;;;;;10.90;6.50;;;6.50;99.90;;;;;;5026594;28;20031;-72
2023/03/29 08:01:07;;;;;;;11.00;6.38;;;6.50;99.90;;;;;;5021762;28;20065;-71
2023/03/29 08:03:33;;;;;;;11.00;7.03;;;6.60;99.90;;;;;;5026576;28;20041;-72
2023/03/29 08:06:03;;;;;;;9.30;6.82;;;6.60;99.90;;;;;;5012380;28;20022;-71
2023/03/29 08:08:35;;;;;;;11.27;7.00;;;6.70;99.90;;;;;;5028000;28;20056;-71
2023/03/29 08:11:08;;;;;;;11.38;6.47;;;6.80;99.90;;;;;;5030259;28;20441;-72
2023/03/29 08:13:41;;;;;;;14.48;6.65;;;6.80;99.90;;;;;;5028484;28;20513;-72
2023/03/29 08:16:09;;;;;;;14.80;6.63;;;6.90;99.90;;;;;;5029109;28;20030;-71
2023/03/29 08:18:41;;;;;;;10.93;6.95;;;6.90;99.90;;;;;;5025623;28;20481;-70
2023/03/29 08:21:09;;;;;;;11.82;6.75;;;6.90;99.90;;;;;;5016140;28;20037;-73
2023/03/29 08:23:35;;;;;;;22.90;13.07;;;6.90;99.90;;;;;;5031312;28;20207;-71
2023/03/29 08:26:07;;;;;;;33.95;17.70;;;6.90;99.90;;;;;;5028534;28;20040;-71
2023/03/29 08:28:39;;;;;;;38.00;20.23;;;6.90;99.90;;;;;;5018014;28;20033;-71
2023/03/29 08:31:08;;;;;;;25.27;16.05;;;6.90;99.90;;;;;;5029486;28;20386;-71
2023/03/29 08:33:39;;;;;;;14.75;10.70;;;6.90;99.90;;;;;;5020785;28;20042;-71
2023/03/29 08:36:08;;;;;;;13.68;8.90;;;6.90;99.90;;;;;;5028085;28;20026;-71
2023/03/29 08:38:42;;;;;;;10.45;7.85;;;7.00;99.90;;;;;;5031296;28;20053;-71
2023/03/29 08:41:20;;;;;;;9.88;6.63;;;7.00;99.90;;;;;;5024270;28;20470;-71
2023/03/29 08:44:12;;;;;;;10.02;6.25;;;7.10;99.90;;;;;;5019125;28;20033;-71
2023/03/29 08:47:17;;;;;;;6.57;4.90;;;7.20;99.90;;;;;;5029305;28;20057;-71
2023/03/29 08:49:54;;;;;;;7.30;4.95;;;7.40;99.90;;;;;;5016467;28;20053;-72
2023/03/29 08:52:34;;;;;;;7.25;4.78;;;7.50;99.90;;;;;;5023870;28;20056;-72
2023/03/29 08:55:03;;;;;;;7.72;4.30;;;7.80;99.90;;;;;;5024125;28;20080;-71
2023/03/29 08:57:45;;;;;;;13.43;5.10;;;7.90;99.90;;;;;;5020720;28;20060;-71
2023/03/29 09:00:22;;;;;;;8.07;4.07;;;8.10;99.90;;;;;;5021154;28;20062;-71
2023/03/29 09:02:53;;;;;;;8.70;4.35;;;8.30;99.90;;;;;;5024966;28;20037;-71
2023/03/29 09:05:32;;;;;;;9.10;4.13;;;8.40;99.90;;;;;;5018355;28;20203;-71
2023/03/29 09:08:07;;;;;;;12.32;4.28;;;8.40;99.90;;;;;;5024068;28;20059;-71
2023/03/29 09:10:45;;;;;;;8.40;4.40;;;8.40;99.90;;;;;;5021742;28;20033;-71
2023/03/29 09:14:06;;;;;;;6.38;4.07;;;8.50;99.90;;;;;;5019525;28;20049;-72
2023/03/29 09:16:51;;;;;;;6.57;3.63;;;8.50;99.90;;;;;;4964132;28;20027;-71
2023/03/29 09:19:40;;;;;;;7.03;4.22;;;8.50;99.90;;;;;;5026621;28;20041;-70
2023/03/29 09:22:23;;;;;;;5.18;3.97;;;8.50;99.90;;;;;;5012630;28;20052;-71
2023/03/29 09:25:23;;;;;;;6.22;3.80;;;8.50;99.90;;;;;;5015581;28;20426;-72
2023/03/29 09:28:15;;;;;;;6.45;4.10;;;8.50;99.90;;;;;;5028249;28;20405;-71
2023/03/29 09:30:50;;;;;;;8.82;4.38;;;8.50;99.90;;;;;;5027722;28;20025;-71
2023/03/29 09:33:26;;;;;;;10.68;4.32;;;8.50;99.90;;;;;;5021917;28;20053;-72
2023/03/29 09:36:31;;;;;;;7.03;4.20;;;8.40;99.90;;;;;;5026197;28;20068;-72
2023/03/29 09:39:04;;;;;;;9.68;4.20;;;8.30;99.90;;;;;;5015309;28;20034;-72
2023/03/29 09:41:40;;;;;;;7.50;3.90;;;8.30;99.90;;;;;;5021377;28;20096;-72
2023/03/29 09:44:18;;;;;;;6.03;4.43;;;8.30;99.90;;;;;;5022847;28;20048;-72
2023/03/29 09:47:00;;;;;;;8.32;4.00;;;8.30;99.90;;;;;;5028886;28;20508;-72
2023/03/29 09:49:40;;;;;;;7.70;4.53;;;8.40;99.90;;;;;;5022173;28;20040;-72
2023/03/29 09:52:19;;;;;;;7.07;4.05;;;8.50;99.90;;;;;;5026475;28;20116;-72
2023/03/29 09:55:00;;;;;;;6.85;4.10;;;8.60;99.90;;;;;;5029450;28;20045;-71
2023/03/29 09:57:30;;;;;;;10.02;5.03;;;8.70;99.90;;;;;;5028225;28;20025;-72
2023/03/29 10:00:05;;;;;;;7.47;4.53;;;8.80;99.90;;;;;;5027019;28;20160;-72
2023/03/29 10:02:37;;;;;;;6.53;4.40;;;8.80;99.90;;;;;;5017720;28;20040;-71
2023/03/29 10:05:16;;;;;;;8.98;4.68;;;8.80;99.90;;;;;;5024048;28;20042;-72
2023/03/29 10:07:54;;;;;;;8.07;4.68;;;9.00;99.90;;;;;;5022711;28;20494;-72
2023/03/29 10:10:32;;;;;;;6.93;4.25;;;9.10;99.90;;;;;;5027671;28;20568;-72
2023/03/29 10:13:11;;;;;;;7.13;4.40;;;9.30;99.90;;;;;;5012858;28;20022;-72
2023/03/29 10:15:43;;;;;;;6.82;4.20;;;9.40;99.90;;;;;;5029423;28;20033;-72
2023/03/29 10:18:16;;;;;;;8.77;4.93;;;9.50;99.90;;;;;;5021264;28;20386;-71
2023/03/29 10:20:48;;;;;;;;;;;9.50;99.90;;;;;;5029822;28;20036;-72
2023/03/29 10:23:20;;;;;;;10.18;4.97;;;9.60;99.90;;;;;;5028893;28;19905;-72
2023/03/29 10:25:52;;;;;;;7.30;4.53;;;9.70;99.90;;;;;;5023825;28;20029;-72
2023/03/29 10:28:26;;;;;;;7.18;4.63;;;9.70;99.90;;;;;;5022602;28;20091;-71
2023/03/29 10:31:00;;;;;;;7.15;4.78;;;9.80;99.90;;;;;;5022531;28;20063;-71
2023/03/29 10:33:34;;;;;;;7.00;5.00;;;9.80;99.90;;;;;;5017364;28;20037;-72
2023/03/29 10:36:06;;;;;;;9.93;5.20;;;9.80;99.90;;;;;;5029030;28;20459;-72
2023/03/29 10:38:36;;;;;;;8.07;4.88;;;9.80;99.90;;;;;;5027176;28;20027;-72
2023/03/29 10:41:09;;;;;;;8.30;4.85;;;9.90;99.90;;;;;;5021598;28;20040;-71
2023/03/29 10:43:37;;;;;;;;;;;10.00;99.90;;;;;;5017136;28;20481;-71
2023/03/29 10:46:30;;;;;;;7.60;4.22;;;10.00;99.90;;;;;;5023547;28;19905;-72
2023/03/29 10:49:15;;;;;;;11.70;5.40;;;10.10;99.90;;;;;;5025285;28;20065;-72
2023/03/29 10:51:50;;;;;;;10.35;6.55;;;10.10;99.90;;;;;;5022730;28;20161;-72
2023/03/29 10:54:21;;;;;;;11.70;6.75;;;10.20;99.90;;;;;;5024831;28;20034;-72
2023/03/29 10:57:02;;;;;;;16.95;8.43;;;10.30;99.90;;;;;;5020481;28;20025;-71
2023/03/29 10:59:56;;;;;;;17.85;9.75;;;10.40;99.90;;;;;;5015463;28;20038;-71
2023/03/29 11:02:51;;;;;;;17.50;9.13;;;10.50;99.90;;;;;;5017470;28;20069;-71
2023/03/29 11:05:27;;;;;;;12.95;7.60;;;10.60;99.90;;;;;;5019943;28;20033;-71
2023/03/29 11:08:16;;;;;;;11.07;6.45;;;10.80;99.90;;;;;;5023715;28;20033;-71
2023/03/29 11:10:51;;;;;;;11.10;6.28;;;10.80;99.90;;;;;;5019200;28;20037;-71
2023/03/29 11:13:49;;;;;;;15.80;6.78;;;10.90;99.90;;;;;;5021585;28;20099;-71
2023/03/29 11:16:31;;;;;;;11.30;5.97;;;10.90;99.90;;;;;;5031019;28;20037;-71
2023/03/29 11:19:23;;;;;;;10.20;6.15;;;11.00;99.90;;;;;;5026560;28;20052;-71
2023/03/29 11:22:10;;;;;;;9.25;5.55;;;11.00;99.90;;;;;;5023739;28;20084;-71
2023/03/29 11:24:55;;;;;;;13.00;6.25;;;11.10;99.90;;;;;;5031821;28;20026;-70
2023/03/29 11:27:39;;;;;;;10.55;5.72;;;11.20;99.90;;;;;;5021894;28;20037;-71
2023/03/29 11:30:36;;;;;;;12.73;6.40;;;11.30;99.90;;;;;;5028462;28;20029;-70
2023/03/29 11:33:29;;;;;;;10.30;5.57;;;11.30;99.90;;;;;;5025830;28;20065;-70
2023/03/29 11:36:17;;;;;;;11.55;5.85;;;11.20;99.90;;;;;;5029617;28;20030;-71
2023/03/29 11:39:06;;;;;;;8.68;4.97;;;11.20;99.90;;;;;;5026064;28;20442;-70
2023/03/29 11:41:39;;;;;;;9.82;5.20;;;11.20;99.90;;;;;;5022832;28;20033;-71
2023/03/29 11:44:21;;;;;;;12.63;5.43;;;11.30;99.90;;;;;;5022214;28;20037;-71
2023/03/29 11:47:05;;;;;;;7.20;5.00;;;11.40;99.90;;;;;;5025714;28;20509;-70
2023/03/29 11:49:37;;;;;;;13.25;5.90;;;11.50;99.90;;;;;;5022427;28;20398;-70
2023/03/29 11:52:13;;;;;;;13.80;6.32;;;11.70;99.90;;;;;;5029059;28;20045;-70
2023/03/29 11:54:54;;;;;;;12.20;5.57;;;11.80;99.90;;;;;;5017981;28;20120;-70
2023/03/29 11:57:32;;;;;;;11.52;5.40;;;12.00;99.90;;;;;;5023041;28;20033;-70
2023/03/29 12:00:39;;;;;;;17.67;9.80;;;12.00;99.90;;;;;;5020257;28;20470;-70
2023/03/29 12:03:12;;;;;;;13.82;7.53;;;12.10;99.90;;;;;;4664796;28;9999848;-71
2023/03/29 12:05:45;;;;;;;13.52;6.93;;;12.20;99.90;;;;;;5020045;28;20030;-72
2023/03/29 12:08:31;;;;;;;19.23;7.68;;;12.20;99.90;;;;;;5025220;28;20029;-71
2023/03/29 12:11:10;;;;;;;9.30;5.82;;;12.20;99.90;;;;;;5021695;28;20183;-70
2023/03/29 12:13:58;;;;;;;10.98;5.90;;;12.30;99.90;;;;;;5020211;28;20040;-70
2023/03/29 12:16:43;;;;;;;12.57;6.82;;;12.30;99.90;;;;;;5022206;28;20037;-72
2023/03/29 12:19:28;;;;;;;10.32;5.60;;;12.30;99.90;;;;;;5029339;28;20109;-72
2023/03/29 12:21:57;;;;;;;11.75;4.97;;;12.40;99.90;;;;;;5025137;28;20104;-71
2023/03/29 12:24:27;;;;;;;10.40;6.10;;;12.50;99.90;;;;;;5027532;28;20080;-70
2023/03/29 12:27:20;;;;;;;9.50;6.10;;;12.40;99.90;;;;;;5027474;28;20056;-72
2023/03/29 12:30:07;;;;;;;8.43;4.40;;;12.40;99.90;;;;;;5013320;28;20106;-71
2023/03/29 12:32:55;;;;;;;7.65;4.80;;;12.40;99.90;;;;;;5031138;28;20042;-70
2023/03/29 12:35:53;;;;;;;10.82;4.93;;;12.40;99.90;;;;;;5022373;28;20946;-71
2023/03/29 12:38:21;;;;;;;10.40;4.32;;;12.60;99.90;;;;;;5011881;28;20025;-71
2023/03/29 12:40:54;;;;;;;7.80;3.80;;;12.90;99.90;;;;;;5023667;28;20049;-71
2023/03/29 12:43:30;;;;;;;9.63;4.05;;;13.10;99.90;;;;;;5027486;28;20171;-71
2023/03/29 12:46:13;;;;;;;7.70;3.95;;;13.20;99.90;;;;;;5023885;28;20045;-71
2023/03/29 12:48:41;;;;;;;5.57;3.13;;;13.40;99.90;;;;;;5029749;28;20041;-71
2023/03/29 12:51:17;;;;;;;5.57;3.60;;;13.40;99.90;;;;;;5025274;28;20025;-71
2023/03/29 12:53:53;;;;;;;4.20;3.22;;;13.40;99.90;;;;;;5027709;28;20033;-72
2023/03/29 12:56:22;;;;;;;7.95;3.70;;;13.50;99.90;;;;;;5026858;28;20104;-71
2023/03/29 12:59:15;;;;;;;6.95;3.13;;;13.50;99.90;;;;;;5028072;28;20445;-71
2023/03/29 13:01:57;;;;;;;5.07;3.53;;;13.40;99.90;;;;;;5022656;28;20042;-72
2023/03/29 13:04:47;;;;;;;5.43;3.33;;;13.30;99.90;;;;;;5023061;28;20045;-72
2023/03/29 13:07:30;;;;;;;6.55;3.72;;;13.30;99.90;;;;;;5020691;28;20045;-72
2023/03/29 13:10:22;;;;;;;6.13;3.30;;;13.10;99.90;;;;;;5023555;28;20738;-72
2023/03/29 13:12:50;;;;;;;7.40;3.38;;;13.00;99.90;;;;;;5027886;28;20423;-72
2023/03/29 13:15:25;;;;;;;5.00;3.22;;;13.00;99.90;;;;;;5026192;28;20030;-72
2023/03/29 13:18:10;;;;;;;7.03;3.53;;;13.00;99.90;;;;;;5017220;28;20112;-71
2023/03/29 13:20:52;;;;;;;5.82;3.53;;;13.10;99.90;;;;;;5024190;28;20576;-71
2023/03/29 13:23:36;;;;;;;7.80;3.80;;;13.10;99.90;;;;;;5016978;28;20044;-71
2023/03/29 13:26:26;;;;;;;7.15;3.90;;;13.10;99.90;;;;;;5012524;28;20033;-71
2023/03/29 13:29:02;;;;;;;6.70;3.70;;;13.20;99.90;;;;;;5016843;28;20036;-71